createdAt,value
2023-03-01T00:01:51.097Z,22.00
2023-03-01T00:04:42.708Z,22.90
2023-03-01T00:07:34.370Z,20.30
2023-03-01T00:10:27.567Z,19.80
2023-03-01T00:13:18.726Z,15.80
2023-03-01T00:16:11.862Z,19.40
2023-03-01T00:19:02.876Z,18.30
2023-03-01T00:21:54.524Z,18.00
2023-03-01T00:24:47.412Z,17.30
2023-03-01T00:27:39.017Z,17.30
2023-03-01T00:30:30.757Z,18.00
2023-03-01T00:33:22.342Z,19.70
2023-03-01T00:36:14.709Z,20.70
2023-03-01T00:39:06.644Z,15.80
2023-03-01T00:41:57.830Z,17.80
2023-03-01T00:44:49.470Z,15.50
2023-03-01T00:47:41.012Z,20.10
2023-03-01T00:50:32.620Z,17.60
2023-03-01T00:53:24.234Z,17.00
2023-03-01T00:56:17.014Z,17.90
2023-03-01T00:59:08.618Z,18.70
2023-03-01T01:02:00.605Z,20.10
2023-03-01T01:04:52.280Z,17.40
2023-03-01T01:07:43.961Z,17.90
2023-03-01T01:10:38.116Z,16.10
2023-03-01T01:13:29.689Z,18.30
2023-03-01T01:16:22.060Z,19.50
2023-03-01T01:19:14.365Z,16.90
2023-03-01T01:22:05.907Z,18.60
2023-03-01T01:24:57.560Z,21.00
2023-03-01T01:27:49.510Z,17.90
2023-03-01T01:30:41.107Z,17.30
2023-03-01T01:33:32.656Z,18.60
2023-03-01T01:36:24.251Z,17.10
2023-03-01T01:39:15.810Z,19.50
2023-03-01T01:42:07.386Z,17.60
2023-03-01T01:45:32.175Z,19.60
2023-03-01T01:48:24.162Z,17.40
2023-03-01T01:51:18.527Z,18.20
2023-03-01T01:54:12.071Z,19.80
2023-03-01T01:57:04.765Z,17.70
2023-03-01T01:59:56.670Z,17.70
2023-03-01T02:02:50.159Z,18.00
2023-03-01T02:05:44.228Z,17.80
2023-03-01T02:08:37.481Z,16.70
2023-03-01T02:11:28.431Z,18.30
2023-03-01T02:14:20.020Z,18.10
2023-03-01T02:17:14.660Z,18.50
2023-03-01T02:20:12.592Z,18.70
2023-03-01T02:23:03.553Z,18.00
2023-03-01T02:25:57.179Z,19.00
2023-03-01T02:28:48.559Z,20.00
2023-03-01T02:31:46.229Z,20.30
2023-03-01T02:34:37.507Z,19.60
2023-03-01T02:37:29.175Z,19.30
2023-03-01T02:40:22.494Z,22.60
2023-03-01T02:43:13.563Z,17.10
2023-03-01T02:46:10.069Z,17.60
2023-03-01T02:49:01.474Z,20.90
2023-03-01T02:52:03.096Z,19.00
2023-03-01T02:54:55.031Z,22.10
2023-03-01T02:57:46.984Z,22.50
2023-03-01T03:00:41.179Z,18.10
2023-03-01T03:03:32.395Z,18.90
2023-03-01T03:06:23.982Z,18.60
2023-03-01T03:09:16.809Z,17.20
2023-03-01T03:12:09.063Z,16.50
2023-03-01T03:15:00.593Z,19.00
2023-03-01T03:17:52.835Z,22.80
2023-03-01T03:20:44.926Z,22.60
2023-03-01T03:23:37.098Z,18.60
2023-03-01T03:26:28.968Z,21.80
2023-03-01T03:29:20.966Z,20.00
2023-03-01T03:32:12.661Z,16.60
2023-03-01T03:35:09.872Z,28.00
2023-03-01T03:38:04.769Z,20.30
2023-03-01T03:41:02.071Z,19.40
2023-03-01T03:43:53.114Z,20.10
2023-03-01T03:46:44.462Z,19.70
2023-03-01T03:49:36.913Z,20.30
2023-03-01T03:52:28.568Z,20.00
2023-03-01T03:55:20.686Z,18.20
2023-03-01T03:58:12.196Z,18.10
2023-03-01T04:01:03.173Z,16.60
2023-03-01T04:03:55.456Z,20.50
2023-03-01T04:06:46.558Z,19.50
2023-03-01T04:09:38.190Z,19.00
2023-03-01T04:12:29.735Z,25.50
2023-03-01T04:15:21.666Z,23.60
2023-03-01T04:18:14.081Z,20.20
2023-03-01T04:21:06.148Z,19.70
2023-03-01T04:23:57.840Z,19.10
2023-03-01T04:26:49.519Z,21.30
2023-03-01T04:29:41.059Z,22.50
2023-03-01T04:32:32.870Z,18.70
2023-03-01T04:35:24.623Z,17.90
2023-03-01T04:38:16.387Z,23.00
2023-03-01T04:41:08.653Z,24.80
2023-03-01T04:44:01.129Z,20.50
2023-03-01T04:46:53.532Z,21.20
2023-03-01T04:49:45.140Z,19.90
2023-03-01T04:52:37.380Z,19.50
2023-03-01T04:55:29.765Z,22.00
2023-03-01T04:58:21.456Z,20.30
2023-03-01T05:01:17.070Z,22.30
2023-03-01T05:04:13.862Z,21.70
2023-03-01T05:07:05.714Z,23.50
2023-03-01T05:09:57.416Z,20.80
2023-03-01T05:12:49.429Z,23.90
2023-03-01T05:15:41.323Z,19.70
2023-03-01T05:18:33.828Z,18.60
2023-03-01T05:21:25.438Z,23.10
2023-03-01T05:24:17.043Z,20.60
2023-03-01T05:27:08.686Z,21.50
2023-03-01T05:30:00.346Z,23.70
2023-03-01T05:32:56.795Z,19.70
2023-03-01T05:38:39.816Z,23.80
2023-03-01T05:41:31.511Z,19.50
2023-03-01T05:44:26.362Z,20.90
2023-03-01T05:47:18.020Z,20.60
2023-03-01T05:50:11.780Z,25.50
2023-03-01T05:53:05.374Z,21.30
2023-03-01T05:55:56.437Z,25.60
2023-03-01T05:58:51.258Z,21.20
2023-03-01T06:01:42.770Z,24.60
2023-03-01T06:04:34.433Z,22.40
2023-03-01T06:07:26.176Z,28.30
2023-03-01T06:10:17.834Z,25.00
2023-03-01T06:13:10.574Z,19.30
2023-03-01T06:16:02.262Z,22.70
2023-03-01T06:18:54.153Z,21.30
2023-03-01T06:21:45.915Z,20.80
2023-03-01T06:24:37.608Z,24.50
2023-03-01T06:27:29.411Z,26.30
2023-03-01T06:30:21.922Z,27.90
2023-03-01T06:33:13.010Z,20.70
2023-03-01T06:36:05.067Z,23.00
2023-03-01T06:38:56.684Z,22.60
2023-03-01T06:41:48.632Z,18.30
2023-03-01T06:44:39.988Z,19.80
2023-03-01T06:47:31.657Z,22.60
2023-03-01T06:50:23.522Z,24.70
2023-03-01T06:53:15.358Z,23.10
2023-03-01T06:56:08.036Z,26.00
2023-03-01T06:58:59.304Z,21.80
2023-03-01T07:01:50.961Z,21.40
2023-03-01T07:04:42.852Z,23.20
2023-03-01T07:07:34.465Z,19.90
2023-03-01T07:10:26.321Z,21.60
2023-03-01T07:13:17.993Z,20.00
2023-03-01T07:16:10.871Z,20.90
2023-03-01T07:19:02.565Z,20.90
2023-03-01T07:21:55.170Z,19.70
2023-03-01T07:24:46.565Z,18.70
2023-03-01T07:27:37.638Z,18.50
2023-03-01T07:30:29.668Z,18.90
2023-03-01T07:33:21.251Z,17.30
2023-03-01T07:36:13.527Z,19.60
2023-03-01T07:39:04.612Z,15.60
2023-03-01T07:41:56.222Z,17.20
2023-03-01T07:44:48.221Z,15.40
2023-03-01T07:47:39.994Z,17.80
2023-03-01T07:50:31.784Z,17.50
2023-03-01T07:53:23.380Z,16.40
2023-03-01T07:56:16.278Z,14.60
2023-03-01T07:59:07.532Z,16.50
2023-03-01T08:01:59.529Z,15.30
2023-03-01T08:04:50.630Z,14.30
2023-03-01T08:07:42.759Z,14.60
2023-03-01T08:10:34.093Z,14.10
2023-03-01T08:13:25.130Z,17.80
2023-03-01T08:16:16.793Z,13.90
2023-03-01T08:19:13.118Z,14.10
2023-03-01T08:22:04.411Z,15.00
2023-03-01T08:24:56.770Z,14.50
2023-03-01T08:27:47.848Z,15.50
2023-03-01T08:30:38.874Z,13.80
2023-03-01T08:33:29.944Z,13.60
2023-03-01T08:36:21.871Z,13.00
2023-03-01T08:39:13.611Z,14.20
2023-03-01T08:42:04.830Z,14.70
2023-03-01T08:44:55.960Z,12.90
2023-03-01T08:47:47.423Z,12.80
2023-03-01T08:50:39.106Z,13.50
2023-03-01T08:53:31.610Z,13.60
2023-03-01T08:56:22.705Z,13.00
2023-03-01T08:59:14.121Z,14.20
2023-03-01T09:02:05.291Z,14.30
2023-03-01T09:04:56.325Z,14.30
2023-03-01T09:07:47.633Z,14.90
2023-03-01T09:10:41.886Z,14.70
2023-03-01T09:13:33.041Z,14.00
2023-03-01T09:16:24.403Z,13.00
2023-03-01T09:19:15.526Z,16.60
2023-03-01T09:22:07.677Z,13.50
2023-03-01T09:25:00.217Z,15.70
2023-03-01T09:27:52.145Z,14.00
2023-03-01T09:30:43.204Z,13.30
2023-03-01T09:33:34.616Z,15.70
2023-03-01T09:36:27.264Z,16.60
2023-03-01T09:39:19.088Z,15.60
2023-03-01T09:42:14.100Z,20.20
2023-03-01T09:45:06.531Z,19.40
2023-03-01T09:47:57.546Z,19.70
2023-03-01T09:50:49.994Z,20.00
2023-03-01T09:53:41.002Z,20.60
2023-03-01T09:56:34.717Z,23.00
2023-03-01T09:59:28.185Z,21.20
2023-03-01T10:02:30.057Z,22.70
2023-03-01T10:05:32.326Z,22.80
2023-03-01T10:08:30.984Z,23.00
2023-03-01T10:11:25.360Z,21.80
2023-03-01T10:14:20.782Z,25.00
2023-03-01T10:17:20.398Z,22.00
2023-03-01T10:20:21.635Z,22.40
2023-03-01T10:23:13.120Z,19.80
2023-03-01T10:26:14.413Z,26.50
2023-03-01T10:29:08.817Z,26.20
2023-03-01T10:32:00.029Z,21.90
2023-03-01T10:34:51.233Z,21.90
2023-03-01T10:37:42.284Z,26.20
2023-03-01T10:40:33.352Z,20.90
2023-03-01T10:43:24.699Z,21.40
2023-03-01T10:46:27.642Z,23.30
2023-03-01T10:49:19.644Z,23.90
2023-03-01T10:52:21.146Z,23.30
2023-03-01T10:55:27.978Z,20.40
2023-03-01T10:58:23.196Z,25.20
2023-03-01T11:04:17.822Z,24.70
2023-03-01T11:07:11.072Z,25.70
2023-03-01T11:10:08.904Z,24.60
2023-03-01T11:13:16.412Z,21.80
2023-03-01T11:16:13.247Z,21.60
2023-03-01T11:19:18.101Z,22.70
2023-03-01T11:22:15.235Z,24.70
2023-03-01T11:25:11.038Z,23.00
2023-03-01T11:28:03.891Z,22.90
2023-03-01T11:31:08.243Z,23.90
2023-03-01T11:34:05.172Z,24.80
2023-03-01T11:39:57.001Z,24.50
2023-03-01T11:42:58.938Z,24.70
2023-03-01T11:46:16.298Z,24.40
2023-03-01T11:49:24.320Z,25.10
2023-03-01T11:52:25.083Z,23.10
2023-03-01T11:55:48.232Z,22.40
2023-03-01T11:59:00.218Z,22.20
2023-03-01T12:02:04.724Z,28.40
2023-03-01T12:05:10.933Z,24.20
2023-03-01T12:08:09.129Z,26.70
2023-03-01T12:11:06.054Z,26.40
2023-03-01T12:14:37.255Z,24.10
2023-03-01T12:17:44.364Z,25.80
2023-03-01T12:20:39.605Z,23.80
2023-03-01T12:26:49.523Z,22.30
2023-03-01T12:29:44.595Z,24.90
2023-03-01T12:32:51.067Z,23.90
2023-03-01T12:36:21.233Z,20.80
2023-03-01T12:39:29.065Z,21.10
2023-03-01T12:42:28.769Z,20.80
2023-03-01T12:45:41.059Z,23.50
2023-03-01T12:48:43.033Z,25.10
2023-03-01T12:51:36.829Z,24.20
2023-03-01T12:54:33.320Z,25.40
2023-03-01T12:57:38.201Z,26.50
2023-03-01T13:00:34.848Z,26.90
2023-03-01T13:03:31.056Z,22.10
2023-03-01T13:06:32.229Z,27.50
2023-03-01T13:09:33.944Z,24.20
2023-03-01T13:12:53.650Z,26.80
2023-03-01T13:15:48.981Z,22.60
2023-03-01T13:18:42.614Z,25.40
2023-03-01T13:21:35.733Z,26.00
2023-03-01T13:24:35.379Z,25.90
2023-03-01T13:27:30.463Z,22.70
2023-03-01T13:30:46.316Z,20.10
2023-03-01T13:33:51.764Z,22.00
2023-03-01T13:36:53.723Z,26.80
2023-03-01T13:39:46.366Z,27.00
2023-03-01T13:42:56.183Z,25.30
2023-03-01T13:45:52.169Z,24.60
2023-03-01T13:48:45.350Z,23.20
2023-03-01T13:51:38.475Z,22.60
2023-03-01T13:54:33.752Z,25.70
2023-03-01T13:57:28.890Z,23.90
2023-03-01T14:00:37.844Z,28.10
2023-03-01T14:03:30.642Z,20.00
2023-03-01T14:06:25.700Z,25.10
2023-03-01T14:09:20.628Z,22.50
2023-03-01T14:12:32.142Z,23.30
2023-03-01T14:15:27.878Z,24.20
2023-03-01T14:18:22.818Z,25.30
2023-03-01T14:21:17.993Z,23.30
2023-03-01T14:24:22.562Z,25.80
2023-03-01T14:27:16.978Z,23.20
2023-03-01T14:30:17.534Z,21.90
2023-03-01T14:33:22.170Z,21.10
2023-03-01T14:36:15.945Z,24.40
2023-03-01T14:39:22.206Z,25.00
2023-03-01T14:42:16.018Z,22.10
2023-03-01T14:45:11.961Z,23.90
2023-03-01T14:48:06.106Z,23.90
2023-03-01T14:50:58.652Z,19.90
2023-03-01T14:53:51.654Z,23.60
2023-03-01T14:56:49.506Z,23.40
2023-03-01T14:59:42.673Z,20.50
2023-03-01T15:02:35.349Z,23.90
2023-03-01T15:05:32.012Z,19.30
2023-03-01T15:08:26.830Z,24.80
2023-03-01T15:11:26.163Z,23.50
2023-03-01T15:14:40.954Z,24.50
2023-03-01T15:17:35.526Z,25.60
2023-03-01T15:20:30.196Z,22.10
2023-03-01T15:23:26.122Z,21.40
2023-03-01T15:26:30.476Z,24.10
2023-03-01T15:29:24.674Z,21.40
2023-03-01T15:32:31.395Z,22.80
2023-03-01T15:35:46.475Z,22.60
2023-03-01T15:38:52.780Z,22.20
2023-03-01T15:41:52.283Z,25.10
2023-03-01T15:44:46.133Z,24.00
2023-03-01T15:47:41.106Z,23.40
2023-03-01T15:50:36.246Z,22.30
2023-03-01T15:53:28.688Z,23.60
2023-03-01T15:56:21.311Z,23.80
2023-03-01T15:59:15.592Z,28.60
2023-03-01T16:02:14.511Z,26.60
2023-03-01T16:05:08.238Z,21.80
2023-03-01T16:08:01.643Z,24.30
2023-03-01T16:10:55.575Z,24.80
2023-03-01T16:13:48.911Z,25.70
2023-03-01T16:16:41.469Z,24.10
2023-03-01T16:19:34.026Z,27.30
2023-03-01T16:22:28.203Z,21.20
2023-03-01T16:25:22.108Z,21.30
2023-03-01T16:28:15.334Z,25.30
2023-03-01T16:31:08.772Z,24.70
2023-03-01T16:34:03.477Z,20.40
2023-03-01T16:36:56.126Z,22.70
2023-03-01T16:39:50.025Z,24.00
2023-03-01T16:42:42.971Z,24.90
2023-03-01T16:45:38.363Z,26.10
2023-03-01T16:48:31.252Z,22.10
2023-03-01T16:51:23.995Z,23.40
2023-03-01T16:54:16.805Z,22.30
2023-03-01T16:57:09.598Z,24.40
2023-03-01T17:00:02.727Z,20.40
2023-03-01T17:02:55.436Z,25.50
2023-03-01T17:05:48.008Z,22.30
2023-03-01T17:08:40.916Z,22.50
2023-03-01T17:11:34.958Z,28.30
2023-03-01T17:14:27.747Z,24.80
2023-03-01T17:17:20.344Z,21.60
2023-03-01T17:20:15.876Z,22.30
2023-03-01T17:23:08.524Z,24.40
2023-03-01T17:26:01.345Z,23.40
2023-03-01T17:28:53.977Z,23.80
2023-03-01T17:31:46.464Z,23.90
2023-03-01T17:34:39.088Z,20.90
2023-03-01T17:37:31.731Z,22.80
2023-03-01T17:40:24.455Z,23.50
2023-03-01T17:43:17.576Z,23.80
2023-03-01T17:46:10.383Z,21.60
2023-03-01T17:49:03.054Z,20.70
2023-03-01T17:51:55.656Z,18.60
2023-03-01T17:54:48.168Z,22.50
2023-03-01T17:57:42.531Z,19.10
2023-03-01T18:00:35.293Z,23.00
2023-03-01T18:03:27.897Z,21.90
2023-03-01T18:06:22.009Z,25.70
2023-03-01T18:09:14.802Z,25.20
2023-03-01T18:12:07.874Z,23.20
2023-03-01T18:15:01.041Z,23.50
2023-03-01T18:17:54.204Z,23.80
2023-03-01T18:20:46.892Z,22.40
2023-03-01T18:23:39.929Z,21.80
2023-03-01T18:26:32.934Z,21.90
2023-03-01T18:29:26.424Z,20.60
2023-03-01T18:32:19.186Z,23.00
2023-03-01T18:35:12.570Z,20.00
2023-03-01T18:38:05.230Z,24.50
2023-03-01T18:40:58.145Z,24.00
2023-03-01T18:43:50.659Z,20.30
2023-03-01T18:46:46.287Z,22.90
2023-03-01T18:49:39.372Z,21.10
2023-03-01T18:52:32.009Z,19.70
2023-03-01T18:55:24.548Z,21.10
2023-03-01T18:58:17.379Z,23.90
2023-03-01T19:01:15.132Z,18.30
2023-03-01T19:04:09.228Z,21.90
2023-03-01T19:07:02.699Z,21.60
2023-03-01T19:09:55.353Z,20.90
2023-03-01T19:12:47.801Z,26.10
2023-03-01T19:15:41.017Z,19.20
2023-03-01T19:18:34.338Z,18.00
2023-03-01T19:21:28.634Z,25.20
2023-03-01T19:24:21.848Z,19.90
2023-03-01T19:27:15.152Z,23.00
2023-03-01T19:30:11.622Z,27.80
2023-03-01T19:33:04.384Z,19.90
2023-03-01T19:35:57.103Z,23.40
2023-03-01T19:38:49.781Z,16.50
2023-03-01T19:41:42.367Z,23.00
2023-03-01T19:44:34.938Z,18.70
2023-03-01T19:47:27.564Z,18.30
2023-03-01T19:50:20.950Z,18.10
2023-03-01T19:53:13.819Z,19.60
2023-03-01T19:56:07.570Z,19.40
2023-03-01T19:59:04.201Z,19.60
2023-03-01T20:01:57.001Z,22.60
2023-03-01T20:04:49.814Z,21.60
2023-03-01T20:07:44.490Z,20.30
2023-03-01T20:10:37.610Z,20.60
2023-03-01T20:13:30.249Z,25.00
2023-03-01T20:16:24.491Z,19.80
2023-03-01T20:19:17.391Z,27.20
2023-03-01T20:22:09.998Z,27.10
2023-03-01T20:25:02.562Z,23.90
2023-03-01T20:27:55.171Z,20.00
2023-03-01T20:30:47.844Z,21.30
2023-03-01T20:33:40.561Z,20.80
2023-03-01T20:36:34.125Z,20.40
2023-03-01T20:39:27.532Z,19.30
2023-03-01T20:42:20.905Z,20.20
2023-03-01T20:45:14.735Z,22.10
2023-03-01T20:48:07.995Z,20.70
2023-03-01T20:51:01.737Z,18.00
2023-03-01T20:53:54.444Z,18.80
2023-03-01T20:56:48.265Z,17.20
2023-03-01T20:59:40.915Z,17.50
2023-03-01T21:02:34.841Z,19.40
2023-03-01T21:05:27.506Z,20.60
2023-03-01T21:08:20.040Z,18.70
2023-03-01T21:11:12.627Z,23.00
2023-03-01T21:14:06.138Z,23.60
2023-03-01T21:16:58.943Z,28.10
2023-03-01T21:19:51.652Z,25.40
2023-03-01T21:22:44.279Z,24.90
2023-03-01T21:25:37.564Z,24.20
2023-03-01T21:28:33.227Z,25.60
2023-03-01T21:31:28.362Z,29.20
2023-03-01T21:34:19.827Z,21.90
2023-03-01T21:37:11.963Z,27.20
2023-03-01T21:40:06.359Z,25.50
2023-03-01T21:42:57.518Z,21.50
2023-03-01T21:45:48.842Z,26.50
2023-03-01T21:48:42.663Z,29.90
2023-03-01T21:51:36.673Z,24.20
2023-03-01T21:54:29.262Z,23.70
2023-03-01T21:57:21.294Z,28.60
2023-03-01T22:00:17.032Z,30.00
2023-03-01T22:03:08.815Z,26.20
2023-03-01T22:06:01.962Z,27.90
2023-03-01T22:08:55.326Z,25.70
2023-03-01T22:11:48.747Z,28.80
2023-03-01T22:14:40.668Z,28.30
2023-03-01T22:17:32.545Z,28.90
2023-03-01T22:20:24.246Z,26.60
2023-03-01T22:23:16.192Z,28.40
2023-03-01T22:26:08.182Z,25.60
2023-03-01T22:29:00.625Z,30.10
2023-03-01T22:31:52.048Z,29.50
2023-03-01T22:34:43.854Z,26.90
2023-03-01T22:37:35.509Z,28.00
2023-03-01T22:40:27.122Z,28.10
2023-03-01T22:43:18.722Z,28.30
2023-03-01T22:46:14.631Z,26.90
2023-03-01T22:49:06.167Z,25.00
2023-03-01T22:51:59.282Z,24.40
2023-03-01T22:54:54.398Z,24.30
2023-03-01T22:57:46.135Z,24.80
2023-03-01T23:00:38.052Z,23.70
2023-03-01T23:03:30.265Z,33.80
2023-03-01T23:06:23.479Z,30.10
2023-03-01T23:09:14.520Z,27.90
2023-03-01T23:12:07.585Z,31.40
2023-03-01T23:14:59.069Z,28.10
2023-03-01T23:17:50.655Z,32.20
2023-03-01T23:20:42.257Z,26.50
2023-03-01T23:23:34.009Z,24.70
2023-03-01T23:26:27.558Z,27.60
2023-03-01T23:29:19.262Z,30.60
2023-03-01T23:32:11.428Z,29.50
2023-03-01T23:35:03.097Z,26.40
2023-03-01T23:37:55.984Z,29.30
2023-03-01T23:40:47.277Z,28.50
2023-03-01T23:43:38.926Z,26.00
2023-03-01T23:46:32.623Z,31.90
2023-03-01T23:49:24.819Z,32.10
2023-03-01T23:52:17.369Z,27.90
2023-03-01T23:55:09.980Z,28.10
2023-03-01T23:58:00.935Z,27.60
